Adriatic Sea — WDB5553 — position and weather

sailwx.info

Track history (hours):
 
Tides and Currents Weather Stations Pressure Air Temp Water Temp Dewpoint Dewpoint Depression Visibility Wind Speed Wind Dir Waves Ship Positions

Adriatic Sea

Owner: Kirby Offshore Marine, LLC, Seattle, WA. More information available from US FCC via Universal Licensing System and Coast Guard Vessel Documentation Center.

Last reported at 2016-Sep-04 07:16 UTC. Time now 2016-Sep-26 08:46 UTC.
Position N 10°09' W 080°01'.
Warning: this ship's position is 22 days out of date.

Length 42 m; draft 4.7 m.

Type: . MMSI: 366910890.

Date/timePositionNaut miles runAvg speedWind from/ knotsBaromVisibWave heightAir tempDewpointWater temp
2016-Sep-04 07:16N 10°09' W 080°01'5 7.4
2016-Sep-04 06:33N 10°04' W 080°01'14 7.0
2016-Sep-04 04:33N 09°50' W 079°59'7 7.1
2016-Sep-04 03:33N 09°43' W 079°58'7 6.7
2016-Sep-04 02:33N 09°37' W 079°56'7 6.6
2016-Sep-04 01:33N 09°30' W 079°55'7 7.0
2016-Sep-04 00:33N 09°23' W 079°55'1 1.3
2016-Sep-03 23:33N 09°22' W 079°56'0 0.0
2016-Sep-03 22:33N 09°22' W 079°56'0 0.0
2016-Sep-03 21:32N 09°22' W 079°56'0 0.0
2016-Sep-03 20:33N 09°22' W 079°56'0 0.0
2016-Sep-03 19:30N 09°22' W 079°56'0 0.0
2016-Sep-03 18:32N 09°22' W 079°56'0 0.0
2016-Sep-03 17:33N 09°22' W 079°56'0 0.0
2016-Sep-03 16:33N 09°22' W 079°56'0 0.1
2016-Sep-03 15:32N 09°23' W 079°56'0 0.1
2016-Sep-03 14:29N 09°23' W 079°56'0 0.0
2016-Sep-03 13:32N 09°23' W 079°56'0 0.0
2016-Sep-03 12:29N 09°23' W 079°56'0 0.0
2016-Sep-03 11:29N 09°23' W 079°56'0 0.0
2016-Sep-03 10:32N 09°23' W 079°56'0 0.0
2016-Sep-03 09:32N 09°23' W 079°56'0 0.0
2016-Sep-03 08:33N 09°23' W 079°56'0 0.0
2016-Sep-03 07:32N 09°23' W 079°56'0 0.0
2016-Sep-03 06:32N 09°23' W 079°56'0 0.0
2016-Sep-03 05:32N 09°23' W 079°56'0 0.0
2016-Sep-03 04:29N 09°23' W 079°56'0 0.0
2016-Sep-03 03:32N 09°23' W 079°56'0 0.0
2016-Sep-03 02:32N 09°23' W 079°56'0 0.0
2016-Sep-03 01:33N 09°23' W 079°56'0 0.0
2016-Sep-03 00:33N 09°23' W 079°56'0 0.0
2016-Sep-02 23:32N 09°23' W 079°56'0 0.0
2016-Sep-02 22:33N 09°23' W 079°56'0 0.0
2016-Sep-02 21:32N 09°23' W 079°56'0 0.1
2016-Sep-02 20:32N 09°23' W 079°56'1 0.6
2016-Sep-02 19:34N 09°23' W 079°56'6 5.7
2016-Sep-02 18:33N 09°28' W 079°55'6 5.9
2016-Sep-02 17:33N 09°34' W 079°53'6 6.1
2016-Sep-02 16:33N 09°40' W 079°55'7 5.7
2016-Sep-02 15:24N 09°47' W 079°56'  
Track history (hours):
 
Tides and Currents Weather Stations Pressure Air Temp Water Temp Dewpoint Dewpoint Depression Visibility Wind Speed Wind Dir Waves Ship Positions

Adriatic Sea

Owner: Kirby Offshore Marine, LLC, Seattle, WA. More information available from US FCC via Universal Licensing System and Coast Guard Vessel Documentation Center.

Last reported at 2016-Sep-04 07:16 UTC. Time now 2016-Sep-26 08:46 UTC.
Position N 10°09' W 080°01'.
Warning: this ship's position is 22 days out of date.

Length 42 m; draft 4.7 m.

Type: . MMSI: 366910890.

Date/timePositionNaut miles runAvg speedWind from/ knotsBaromVisibWave heightAir tempDewpointWater temp
2016-Sep-04 07:16N 10°09' W 080°01'5 7.4
2016-Sep-04 06:33N 10°04' W 080°01'14 7.0
2016-Sep-04 04:33N 09°50' W 079°59'7 7.1
2016-Sep-04 03:33N 09°43' W 079°58'7 6.7
2016-Sep-04 02:33N 09°37' W 079°56'7 6.6
2016-Sep-04 01:33N 09°30' W 079°55'7 7.0
2016-Sep-04 00:33N 09°23' W 079°55'1 1.3
2016-Sep-03 23:33N 09°22' W 079°56'0 0.0
2016-Sep-03 22:33N 09°22' W 079°56'0 0.0
2016-Sep-03 21:32N 09°22' W 079°56'0 0.0
2016-Sep-03 20:33N 09°22' W 079°56'0 0.0
2016-Sep-03 19:30N 09°22' W 079°56'0 0.0
2016-Sep-03 18:32N 09°22' W 079°56'0 0.0
2016-Sep-03 17:33N 09°22' W 079°56'0 0.0
2016-Sep-03 16:33N 09°22' W 079°56'0 0.1
2016-Sep-03 15:32N 09°23' W 079°56'0 0.1
2016-Sep-03 14:29N 09°23' W 079°56'0 0.0
2016-Sep-03 13:32N 09°23' W 079°56'0 0.0
2016-Sep-03 12:29N 09°23' W 079°56'0 0.0
2016-Sep-03 11:29N 09°23' W 079°56'0 0.0
2016-Sep-03 10:32N 09°23' W 079°56'0 0.0
2016-Sep-03 09:32N 09°23' W 079°56'0 0.0
2016-Sep-03 08:33N 09°23' W 079°56'0 0.0
2016-Sep-03 07:32N 09°23' W 079°56'0 0.0
2016-Sep-03 06:32N 09°23' W 079°56'0 0.0
2016-Sep-03 05:32N 09°23' W 079°56'0 0.0
2016-Sep-03 04:29N 09°23' W 079°56'0 0.0
2016-Sep-03 03:32N 09°23' W 079°56'0 0.0
2016-Sep-03 02:32N 09°23' W 079°56'0 0.0
2016-Sep-03 01:33N 09°23' W 079°56'0 0.0
2016-Sep-03 00:33N 09°23' W 079°56'0 0.0
2016-Sep-02 23:32N 09°23' W 079°56'0 0.0
2016-Sep-02 22:33N 09°23' W 079°56'0 0.0
2016-Sep-02 21:32N 09°23' W 079°56'0 0.1
2016-Sep-02 20:32N 09°23' W 079°56'1 0.6
2016-Sep-02 19:34N 09°23' W 079°56'6 5.7
2016-Sep-02 18:33N 09°28' W 079°55'6 5.9
2016-Sep-02 17:33N 09°34' W 079°53'6 6.1
2016-Sep-02 16:33N 09°40' W 079°55'7 5.7
2016-Sep-02 15:24N 09°47' W 079°56'  

Dump ship's entire track history